createdAt,value
2017-07-05T00:00:06.605Z,17.46
2017-07-05T00:00:47.190Z,17.44
2017-07-05T00:01:27.764Z,17.44
2017-07-05T00:02:08.345Z,17.49
2017-07-05T00:02:48.989Z,17.44
2017-07-05T00:03:29.570Z,17.42
2017-07-05T00:04:10.142Z,17.46
2017-07-05T00:04:50.725Z,17.38
2017-07-05T00:05:31.308Z,17.45
2017-07-05T00:06:11.889Z,17.38
2017-07-05T00:06:52.457Z,17.41
2017-07-05T00:07:33.044Z,17.41
2017-07-05T00:08:13.623Z,17.38
2017-07-05T00:08:54.182Z,17.34
2017-07-05T00:09:34.743Z,17.34
2017-07-05T00:10:15.321Z,17.38
2017-07-05T00:10:55.918Z,17.33
2017-07-05T00:11:36.483Z,17.36
2017-07-05T00:12:17.061Z,17.46
2017-07-05T00:12:57.632Z,17.38
2017-07-05T00:13:38.190Z,17.38
2017-07-05T00:14:18.768Z,17.38
2017-07-05T00:14:59.333Z,17.34
2017-07-05T00:15:39.927Z,17.31
2017-07-05T00:16:20.509Z,17.36
2017-07-05T00:17:01.076Z,17.3
2017-07-05T00:17:41.654Z,17.3
2017-07-05T00:18:22.223Z,17.31
2017-07-05T00:19:02.786Z,17.33
2017-07-05T00:19:43.371Z,17.31
2017-07-05T00:20:23.940Z,17.33
2017-07-05T00:21:04.505Z,17.39
2017-07-05T00:21:45.090Z,17.38
2017-07-05T00:22:25.667Z,17.33
2017-07-05T00:23:06.228Z,17.42
2017-07-05T00:23:46.801Z,17.34
2017-07-05T00:24:27.367Z,17.34
2017-07-05T00:25:07.950Z,17.36
2017-07-05T00:25:48.605Z,17.33
2017-07-05T00:26:29.180Z,17.33
2017-07-05T00:27:09.756Z,17.31
2017-07-05T00:27:50.329Z,17.31
2017-07-05T00:28:30.934Z,17.33
2017-07-05T00:29:11.491Z,17.38
2017-07-05T00:29:52.106Z,17.44
2017-07-05T00:30:32.693Z,17.39
2017-07-05T00:31:13.281Z,17.36
2017-07-05T00:31:53.885Z,17.34
2017-07-05T00:32:34.480Z,17.41
2017-07-05T00:33:15.092Z,17.38
2017-07-05T00:33:55.686Z,17.31
2017-07-05T00:34:36.293Z,17.33
2017-07-05T00:35:16.855Z,17.36
2017-07-05T00:35:57.422Z,17.39
2017-07-05T00:36:37.994Z,17.41
2017-07-05T00:37:18.608Z,17.41
2017-07-05T00:37:59.177Z,17.41
2017-07-05T00:38:39.784Z,17.34
2017-07-05T00:39:20.364Z,17.34
2017-07-05T00:40:00.960Z,17.3
2017-07-05T00:40:41.522Z,17.36
2017-07-05T00:41:22.090Z,17.36
2017-07-05T00:42:02.668Z,17.31
2017-07-05T00:42:43.266Z,17.31
2017-07-05T00:43:23.802Z,17.3
2017-07-05T00:44:04.390Z,17.34
2017-07-05T00:44:44.957Z,17.31
2017-07-05T00:45:25.532Z,17.34
2017-07-05T00:46:06.112Z,17.27
2017-07-05T00:46:46.697Z,17.36
2017-07-05T00:47:27.276Z,17.34
2017-07-05T00:48:07.838Z,17.34
2017-07-05T00:48:48.412Z,17.31
2017-07-05T00:49:28.998Z,17.33
2017-07-05T00:50:09.561Z,17.33
2017-07-05T00:50:50.130Z,17.3
2017-07-05T00:51:30.708Z,17.36
2017-07-05T00:52:11.268Z,17.3
2017-07-05T00:52:51.839Z,17.36
2017-07-05T00:53:32.395Z,17.36
2017-07-05T00:54:12.963Z,17.39
2017-07-05T00:54:53.539Z,17.27
2017-07-05T00:55:34.114Z,17.27
2017-07-05T00:56:14.688Z,17.27
2017-07-05T00:56:55.258Z,17.33
2017-07-05T00:57:35.821Z,17.24
2017-07-05T00:58:16.396Z,17.27
2017-07-05T00:58:56.982Z,17.24
2017-07-05T00:59:37.551Z,17.34
2017-07-05T01:00:18.137Z,17.3
2017-07-05T01:00:58.680Z,17.22
2017-07-05T01:01:39.246Z,17.24
2017-07-05T01:02:19.814Z,17.33
2017-07-05T01:03:00.381Z,17.24
2017-07-05T01:03:40.947Z,17.29
2017-07-05T01:04:21.517Z,17.24
2017-07-05T01:05:02.104Z,17.27
2017-07-05T01:05:42.655Z,17.2
2017-07-05T01:06:23.366Z,17.34
2017-07-05T01:07:03.929Z,17.24
2017-07-05T01:07:44.496Z,17.29
2017-07-05T01:08:25.073Z,17.36
2017-07-05T01:09:05.673Z,17.29
2017-07-05T01:09:46.241Z,17.27
2017-07-05T01:10:26.809Z,17.19
2017-07-05T01:11:07.396Z,17.24
2017-07-05T01:11:47.962Z,17.31
2017-07-05T01:12:28.526Z,17.27
2017-07-05T01:13:09.093Z,17.24
2017-07-05T01:13:49.672Z,17.3
2017-07-05T01:14:30.247Z,17.34
2017-07-05T01:15:10.831Z,17.19
2017-07-05T01:15:51.411Z,17.22
2017-07-05T01:16:31.988Z,17.23
2017-07-05T01:17:12.557Z,17.15
2017-07-05T01:17:53.134Z,17.23
2017-07-05T01:18:33.691Z,17.22
2017-07-05T01:19:14.267Z,17.19
2017-07-05T01:19:54.835Z,17.2
2017-07-05T01:20:35.412Z,17.22
2017-07-05T01:21:15.982Z,17.2
2017-07-05T01:21:56.551Z,17.23
2017-07-05T01:22:37.137Z,17.2
2017-07-05T01:23:17.715Z,17.23
2017-07-05T01:23:58.297Z,17.27
2017-07-05T01:24:38.858Z,17.19
2017-07-05T01:25:19.419Z,17.24
2017-07-05T01:25:59.983Z,17.16
2017-07-05T01:26:40.569Z,17.2
2017-07-05T01:27:21.131Z,17.19
2017-07-05T01:28:01.700Z,17.2
2017-07-05T01:28:42.304Z,17.15
2017-07-05T01:29:22.901Z,17.22
2017-07-05T01:30:03.472Z,17.22
2017-07-05T01:30:44.037Z,17.22
2017-07-05T01:31:24.606Z,17.22
2017-07-05T01:32:05.176Z,17.24
2017-07-05T01:32:45.762Z,17.14
2017-07-05T01:33:26.340Z,17.26
2017-07-05T01:34:06.914Z,17.26
2017-07-05T01:34:47.493Z,17.15
2017-07-05T01:35:28.103Z,17.24
2017-07-05T01:36:08.666Z,17.23
2017-07-05T01:36:49.269Z,17.23
2017-07-05T01:37:29.860Z,17.11
2017-07-05T01:38:10.431Z,17.2
2017-07-05T01:38:51.014Z,17.2
2017-07-05T01:39:31.598Z,17.23
2017-07-05T01:40:12.190Z,17.14
2017-07-05T01:40:52.794Z,17.24
2017-07-05T01:41:33.370Z,17.23
2017-07-05T01:42:13.948Z,17.23
2017-07-05T01:42:54.530Z,17.15
2017-07-05T01:43:35.099Z,17.14
2017-07-05T01:44:15.666Z,17.2
2017-07-05T01:44:56.231Z,17.12
2017-07-05T01:45:36.811Z,17.12
2017-07-05T01:46:17.402Z,17.19
2017-07-05T01:46:57.972Z,17.22
2017-07-05T01:47:38.541Z,17.14
2017-07-05T01:48:19.111Z,17.22
2017-07-05T01:48:59.687Z,17.14
2017-07-05T01:49:40.274Z,17.26
2017-07-05T01:50:20.844Z,17.16
2017-07-05T01:51:01.436Z,17.12
2017-07-05T01:51:42.006Z,17.11
2017-07-05T01:52:22.577Z,17.14
2017-07-05T01:53:03.155Z,17.16
2017-07-05T01:53:43.732Z,17.09
2017-07-05T01:54:24.319Z,17.14
2017-07-05T01:55:04.936Z,17.08
2017-07-05T01:55:45.495Z,17.05
2017-07-05T01:56:26.058Z,17.11
2017-07-05T01:57:06.639Z,17.11
2017-07-05T01:57:47.213Z,17.08
2017-07-05T01:58:27.788Z,17.06
2017-07-05T01:59:08.363Z,17.12
2017-07-05T01:59:48.942Z,17.11
2017-07-05T02:00:29.525Z,17.11
2017-07-05T02:01:10.120Z,17.14
2017-07-05T02:01:50.691Z,17.11
2017-07-05T02:02:31.267Z,17.16
2017-07-05T02:03:11.832Z,17.05
2017-07-05T02:03:52.404Z,17.05
2017-07-05T02:04:32.982Z,17.12
2017-07-05T02:05:13.557Z,16.99
2017-07-05T02:05:54.129Z,17.08
2017-07-05T02:06:34.694Z,17.01
2017-07-05T02:07:15.272Z,17.12
2017-07-05T02:07:55.857Z,17.12
2017-07-05T02:08:36.431Z,17.06
2017-07-05T02:09:17.013Z,17.04
2017-07-05T02:09:57.594Z,17.04
2017-07-05T02:10:38.172Z,17.14
2017-07-05T02:11:18.725Z,17.05
2017-07-05T02:11:59.294Z,17.04
2017-07-05T02:12:39.862Z,17.09
2017-07-05T02:13:20.440Z,17.04
2017-07-05T02:14:01.112Z,17.02
2017-07-05T02:14:41.687Z,17.02
2017-07-05T02:15:22.279Z,17.02
2017-07-05T02:16:02.856Z,16.97
2017-07-05T02:16:43.423Z,17.01
2017-07-05T02:17:23.994Z,17.06
2017-07-05T02:18:04.565Z,17.06
2017-07-05T02:18:45.139Z,17.08
2017-07-05T02:19:25.707Z,17.04
2017-07-05T02:20:06.294Z,17.02
2017-07-05T02:20:46.865Z,17.05
2017-07-05T02:21:27.428Z,17.08
2017-07-05T02:22:07.995Z,17.06
2017-07-05T02:22:48.560Z,17.02
2017-07-05T02:23:29.139Z,16.99
2017-07-05T02:24:09.720Z,16.96
2017-07-05T02:24:50.277Z,17.04
2017-07-05T02:25:30.849Z,17.04
2017-07-05T02:26:11.424Z,17.05
2017-07-05T02:26:51.997Z,17.02
2017-07-05T02:27:32.551Z,16.99
2017-07-05T02:28:13.119Z,17.06
2017-07-05T02:28:53.681Z,17.01
2017-07-05T02:29:34.286Z,17.02
2017-07-05T02:30:14.857Z,16.96
2017-07-05T02:30:55.440Z,17.05
2017-07-05T02:31:36.011Z,16.99
2017-07-05T02:32:16.585Z,17.01
2017-07-05T02:32:57.145Z,16.99
2017-07-05T02:33:37.755Z,16.99
2017-07-05T02:34:18.316Z,16.97
2017-07-05T02:34:58.901Z,16.96
2017-07-05T02:35:39.464Z,16.99
2017-07-05T02:36:20.050Z,17.01
2017-07-05T02:37:00.661Z,16.94
2017-07-05T02:37:41.238Z,16.93
2017-07-05T02:38:21.822Z,16.93
2017-07-05T02:39:02.394Z,16.94
2017-07-05T02:39:42.959Z,16.9
2017-07-05T02:40:23.521Z,16.9
2017-07-05T02:41:04.097Z,16.81
2017-07-05T02:41:44.671Z,16.89
2017-07-05T02:42:25.238Z,16.84
2017-07-05T02:43:05.874Z,16.79
2017-07-05T02:43:46.468Z,16.87
2017-07-05T02:44:27.091Z,16.78
2017-07-05T02:45:07.665Z,16.83
2017-07-05T02:45:48.246Z,16.81
2017-07-05T02:46:28.811Z,16.89
2017-07-05T02:47:09.426Z,16.81
2017-07-05T02:47:50.018Z,16.78
2017-07-05T02:48:30.607Z,16.79
2017-07-05T02:49:11.176Z,16.79
2017-07-05T02:49:51.762Z,16.84
2017-07-05T02:50:32.350Z,16.78
2017-07-05T02:51:12.905Z,16.83
2017-07-05T02:51:53.477Z,16.81
2017-07-05T02:52:34.054Z,16.86
2017-07-05T02:53:14.639Z,16.78
2017-07-05T02:53:55.238Z,16.79
2017-07-05T02:54:35.801Z,16.84
2017-07-05T02:55:16.373Z,16.75
2017-07-05T02:55:56.949Z,16.78
2017-07-05T02:56:37.523Z,16.81
2017-07-05T02:57:18.094Z,16.81
2017-07-05T02:57:58.666Z,16.76
2017-07-05T02:58:39.260Z,16.76
2017-07-05T02:59:19.860Z,16.78
2017-07-05T03:00:00.433Z,16.76
2017-07-05T03:00:41.007Z,16.83
2017-07-05T03:01:21.585Z,16.78
2017-07-05T03:02:02.193Z,16.76
2017-07-05T03:02:42.755Z,16.83
2017-07-05T03:03:23.336Z,16.81
2017-07-05T03:04:03.901Z,16.81
2017-07-05T03:04:44.472Z,16.83
2017-07-05T03:05:25.037Z,16.83
2017-07-05T03:06:05.622Z,16.89
2017-07-05T03:06:46.196Z,16.81
2017-07-05T03:07:26.779Z,16.78
2017-07-05T03:08:07.378Z,16.89
2017-07-05T03:08:47.980Z,16.87
2017-07-05T03:09:28.557Z,16.84
2017-07-05T03:10:09.123Z,16.76
2017-07-05T03:10:49.720Z,16.84
2017-07-05T03:11:30.330Z,16.87
2017-07-05T03:12:10.934Z,16.84
2017-07-05T03:12:51.551Z,16.81
2017-07-05T03:13:32.119Z,16.81
2017-07-05T03:14:12.690Z,16.83
2017-07-05T03:14:53.272Z,16.83
2017-07-05T03:15:33.859Z,16.74
2017-07-05T03:16:14.456Z,16.74
2017-07-05T03:16:55.024Z,16.72
2017-07-05T03:17:35.597Z,16.79
2017-07-05T03:18:16.161Z,16.81
2017-07-05T03:18:56.784Z,16.74
2017-07-05T03:19:37.312Z,16.84
2017-07-05T03:20:17.879Z,16.79
2017-07-05T03:20:58.435Z,16.75
2017-07-05T03:21:39.011Z,16.78
2017-07-05T03:22:19.592Z,16.72
2017-07-05T03:23:00.159Z,16.74
2017-07-05T03:23:40.721Z,16.72
2017-07-05T03:24:21.282Z,16.72
2017-07-05T03:25:01.847Z,16.75
2017-07-05T03:25:42.431Z,16.74
2017-07-05T03:26:23.005Z,16.79
2017-07-05T03:27:03.575Z,16.72
2017-07-05T03:27:44.182Z,16.72
2017-07-05T03:28:24.778Z,16.71
2017-07-05T03:29:05.336Z,16.71
2017-07-05T03:29:45.918Z,16.71
2017-07-05T03:30:26.497Z,16.71
2017-07-05T03:31:07.100Z,16.76
2017-07-05T03:31:47.712Z,16.78
2017-07-05T03:32:28.319Z,16.69
2017-07-05T03:33:08.921Z,16.76
2017-07-05T03:33:49.472Z,16.72
2017-07-05T03:34:30.047Z,16.84
2017-07-05T03:35:10.652Z,16.75
2017-07-05T03:35:51.243Z,16.72
2017-07-05T03:36:31.828Z,16.69
2017-07-05T03:37:12.412Z,16.71
2017-07-05T03:37:52.987Z,16.71
2017-07-05T03:38:33.555Z,16.75
2017-07-05T03:39:14.110Z,16.71
2017-07-05T03:39:54.688Z,16.74
2017-07-05T03:40:35.302Z,16.72
2017-07-05T03:41:15.891Z,16.75
2017-07-05T03:41:56.450Z,16.74
2017-07-05T03:42:37.083Z,16.74
2017-07-05T03:43:17.686Z,16.74
2017-07-05T03:43:58.259Z,16.72
2017-07-05T03:44:38.837Z,16.76
2017-07-05T03:45:19.434Z,16.75
2017-07-05T03:46:00.059Z,16.69
2017-07-05T03:46:40.637Z,16.72
2017-07-05T03:47:21.222Z,16.79
2017-07-05T03:48:01.798Z,16.74
2017-07-05T03:48:42.386Z,16.83
2017-07-05T03:49:23.011Z,16.83
2017-07-05T03:50:03.592Z,16.76
2017-07-05T03:50:44.162Z,16.86
2017-07-05T03:51:24.733Z,16.79
2017-07-05T03:52:05.308Z,16.79
2017-07-05T03:52:45.863Z,16.78
2017-07-05T03:53:26.460Z,16.78
2017-07-05T03:54:07.058Z,16.75
2017-07-05T03:54:47.626Z,16.79
2017-07-05T03:55:28.194Z,16.89
2017-07-05T03:56:08.764Z,16.81
2017-07-05T03:56:49.335Z,16.83
2017-07-05T03:57:29.911Z,16.83
2017-07-05T03:58:10.492Z,16.84
2017-07-05T03:58:51.068Z,16.86
2017-07-05T03:59:31.639Z,16.79
2017-07-05T04:00:12.219Z,16.83
2017-07-05T04:00:52.784Z,16.89
2017-07-05T04:01:33.350Z,16.78
2017-07-05T04:02:13.910Z,16.81
2017-07-05T04:02:54.483Z,16.83
2017-07-05T04:03:35.046Z,16.86
2017-07-05T04:04:15.617Z,16.84
2017-07-05T04:04:56.191Z,16.87
2017-07-05T04:05:36.814Z,16.84
2017-07-05T04:06:17.344Z,16.78
2017-07-05T04:06:57.927Z,16.86
2017-07-05T04:07:38.497Z,16.86
2017-07-05T04:08:19.057Z,16.79
2017-07-05T04:08:59.618Z,16.83
2017-07-05T04:09:40.203Z,16.83
2017-07-05T04:10:20.825Z,16.83
2017-07-05T04:11:01.376Z,16.79
2017-07-05T04:11:41.942Z,16.86
2017-07-05T04:12:22.506Z,16.83
2017-07-05T04:13:03.066Z,16.78
2017-07-05T04:13:43.639Z,16.81
2017-07-05T04:14:24.224Z,16.81
2017-07-05T04:15:04.788Z,16.81
2017-07-05T04:15:45.360Z,16.75
2017-07-05T04:16:25.945Z,16.83
2017-07-05T04:17:06.520Z,16.79
2017-07-05T04:17:47.106Z,16.81
2017-07-05T04:18:27.681Z,16.83
2017-07-05T04:19:08.284Z,16.86
2017-07-05T04:19:48.868Z,16.83
2017-07-05T04:20:29.443Z,16.93
2017-07-05T04:21:10.035Z,16.83
2017-07-05T04:21:50.619Z,16.84
2017-07-05T04:22:31.203Z,16.97
2017-07-05T04:23:11.770Z,16.87
2017-07-05T04:23:52.340Z,16.91
2017-07-05T04:24:32.914Z,17.01
2017-07-05T04:25:13.476Z,17.04
2017-07-05T04:25:54.051Z,17.14
2017-07-05T04:26:35.113Z,17.23
2017-07-05T04:27:15.685Z,17.16
2017-07-05T04:27:56.256Z,17.3
2017-07-05T04:28:36.848Z,17.29
2017-07-05T04:29:17.426Z,17.38
2017-07-05T04:29:58.022Z,17.46
2017-07-05T04:30:38.643Z,17.46
2017-07-05T04:31:19.249Z,17.46
2017-07-05T04:31:59.809Z,17.64
2017-07-05T04:32:40.391Z,17.65
2017-07-05T04:33:20.956Z,17.6
2017-07-05T04:34:01.523Z,17.72
2017-07-05T04:34:42.110Z,17.67
2017-07-05T04:35:22.661Z,17.76
2017-07-05T04:36:03.235Z,17.72
2017-07-05T04:36:43.800Z,17.71
2017-07-05T04:37:24.361Z,17.74
2017-07-05T04:38:04.967Z,17.8
2017-07-05T04:38:45.526Z,17.89
2017-07-05T04:39:26.156Z,17.82
2017-07-05T04:40:06.733Z,17.95
2017-07-05T04:40:47.320Z,17.94
2017-07-05T04:41:28.007Z,17.95
2017-07-05T04:42:08.609Z,18.05
2017-07-05T04:42:49.191Z,18.03
2017-07-05T04:43:29.762Z,18.13
2017-07-05T04:44:10.335Z,18.13
2017-07-05T04:44:50.906Z,18.16
2017-07-05T04:45:31.480Z,18.19
2017-07-05T04:46:12.051Z,18.18
2017-07-05T04:46:52.627Z,18.15
2017-07-05T04:47:33.229Z,18.18
2017-07-05T04:48:13.803Z,18.28
2017-07-05T04:48:54.385Z,18.23
2017-07-05T04:49:35.007Z,18.26
2017-07-05T04:50:15.567Z,18.33
2017-07-05T04:50:56.134Z,18.28
2017-07-05T04:51:36.714Z,18.29
2017-07-05T04:52:17.314Z,18.29
2017-07-05T04:52:57.874Z,18.31
2017-07-05T04:53:38.486Z,18.33
2017-07-05T04:54:19.021Z,18.33
2017-07-05T04:54:59.616Z,18.34
2017-07-05T04:55:40.200Z,18.26
2017-07-05T04:56:20.767Z,18.31
2017-07-05T04:57:01.363Z,18.29
2017-07-05T04:57:41.933Z,18.31
2017-07-05T04:58:22.495Z,18.34
2017-07-05T04:59:03.092Z,18.35
2017-07-05T04:59:43.738Z,18.45
2017-07-05T05:00:24.337Z,18.44
2017-07-05T05:01:04.913Z,18.33
2017-07-05T05:01:45.503Z,18.37
2017-07-05T05:02:26.079Z,18.43
2017-07-05T05:03:06.661Z,18.41
2017-07-05T05:03:47.239Z,18.41
2017-07-05T05:04:27.828Z,18.4
2017-07-05T05:05:08.454Z,18.41
2017-07-05T05:05:49.035Z,18.47
2017-07-05T05:06:29.620Z,18.45
2017-07-05T05:07:10.213Z,18.38
2017-07-05T05:07:50.790Z,18.41
2017-07-05T05:08:31.355Z,18.43
2017-07-05T05:09:11.960Z,18.49
2017-07-05T05:09:52.538Z,18.41
2017-07-05T05:10:33.152Z,18.38
2017-07-05T05:11:13.771Z,18.41
2017-07-05T05:11:54.368Z,18.41
2017-07-05T05:12:34.947Z,18.49
2017-07-05T05:13:15.534Z,18.38
2017-07-05T05:13:56.111Z,18.45
2017-07-05T05:14:36.688Z,18.41
2017-07-05T05:15:17.247Z,18.41
2017-07-05T05:15:57.827Z,18.44
2017-07-05T05:16:38.421Z,18.35
2017-07-05T05:17:18.980Z,18.41
2017-07-05T05:17:59.566Z,18.45
2017-07-05T05:18:40.168Z,18.45
2017-07-05T05:19:20.777Z,18.47
2017-07-05T05:20:01.346Z,18.41
2017-07-05T05:20:41.925Z,18.5
2017-07-05T05:21:22.509Z,18.45
2017-07-05T05:22:03.097Z,18.47
2017-07-05T05:22:43.684Z,18.47
2017-07-05T05:23:24.277Z,18.41
2017-07-05T05:24:04.845Z,18.44
2017-07-05T05:24:45.445Z,18.44
2017-07-05T05:25:26.034Z,18.4
2017-07-05T05:26:06.605Z,18.52
2017-07-05T05:26:47.198Z,18.44
2017-07-05T05:27:27.776Z,18.37
2017-07-05T05:28:08.395Z,18.38
2017-07-05T05:28:48.973Z,18.34
2017-07-05T05:29:29.631Z,18.33
2017-07-05T05:30:10.217Z,18.31
2017-07-05T05:30:50.817Z,18.31
2017-07-05T05:31:31.376Z,18.34
2017-07-05T05:32:11.940Z,18.28
2017-07-05T05:32:52.507Z,18.33
2017-07-05T05:33:33.075Z,18.16
2017-07-05T05:34:13.697Z,18.13
2017-07-05T05:34:54.267Z,18.13
2017-07-05T05:35:34.857Z,18.11
2017-07-05T05:36:15.426Z,18.08
2017-07-05T05:36:55.994Z,18.05
2017-07-05T05:37:36.576Z,18
2017-07-05T05:38:17.161Z,18.01
2017-07-05T05:38:57.748Z,17.98
2017-07-05T05:39:38.365Z,18
2017-07-05T05:40:18.933Z,17.97
2017-07-05T05:40:59.503Z,17.95
2017-07-05T05:41:40.085Z,17.94
2017-07-05T05:42:20.667Z,17.94
2017-07-05T05:43:01.235Z,17.94
2017-07-05T05:43:41.805Z,17.94
2017-07-05T05:44:22.395Z,17.9
2017-07-05T05:45:02.992Z,17.87
2017-07-05T05:45:43.562Z,17.94
2017-07-05T05:46:24.139Z,17.87
2017-07-05T05:47:04.742Z,17.71
2017-07-05T05:47:45.315Z,17.74
2017-07-05T05:48:25.902Z,17.74
2017-07-05T05:49:06.487Z,17.8
2017-07-05T05:49:47.078Z,17.76
2017-07-05T05:50:27.656Z,17.64
2017-07-05T05:51:08.216Z,17.67
2017-07-05T05:51:48.788Z,17.56
2017-07-05T05:52:29.358Z,17.64
2017-07-05T05:53:09.921Z,17.67
2017-07-05T05:53:50.492Z,17.49
2017-07-05T05:54:31.056Z,17.45
2017-07-05T05:55:11.638Z,17.45
2017-07-05T05:55:52.211Z,17.54
2017-07-05T05:56:32.800Z,17.46
2017-07-05T05:57:13.364Z,17.45
2017-07-05T05:57:53.931Z,17.46
2017-07-05T05:58:34.507Z,17.41
2017-07-05T05:59:15.068Z,17.36
2017-07-05T05:59:55.652Z,17.38
2017-07-05T06:00:36.220Z,17.41
2017-07-05T06:01:16.788Z,17.33
2017-07-05T06:01:57.361Z,17.3
2017-07-05T06:02:37.950Z,17.33
2017-07-05T06:03:18.523Z,17.31
2017-07-05T06:03:59.116Z,17.34
2017-07-05T06:04:39.686Z,17.38
2017-07-05T06:05:20.257Z,17.24
2017-07-05T06:06:00.826Z,17.3
2017-07-05T06:06:41.403Z,17.2
2017-07-05T06:07:21.971Z,17.23
2017-07-05T06:08:02.560Z,17.26
2017-07-05T06:08:43.153Z,17.22
2017-07-05T06:09:23.709Z,17.12
2017-07-05T06:10:04.291Z,17.14
2017-07-05T06:10:44.883Z,17.14
2017-07-05T06:11:25.459Z,17.08
2017-07-05T06:12:06.028Z,17.04
2017-07-05T06:12:46.605Z,17.11
2017-07-05T06:13:27.167Z,17.12
2017-07-05T06:14:07.743Z,16.99
2017-07-05T06:14:48.316Z,17.08
2017-07-05T06:15:28.895Z,17.02
2017-07-05T06:16:09.460Z,17.02
2017-07-05T06:16:50.026Z,17.04
2017-07-05T06:17:30.595Z,17.04
2017-07-05T06:18:11.154Z,17.04
2017-07-05T06:18:51.725Z,16.97
2017-07-05T06:19:32.314Z,16.94
2017-07-05T06:20:12.886Z,16.96
2017-07-05T06:20:53.455Z,16.91
2017-07-05T06:21:34.061Z,16.89
2017-07-05T06:22:14.642Z,16.89
2017-07-05T06:22:55.200Z,16.94
2017-07-05T06:23:35.776Z,16.94
2017-07-05T06:24:16.363Z,16.78
2017-07-05T06:24:56.939Z,16.76
2017-07-05T06:25:37.509Z,16.84
2017-07-05T06:26:18.111Z,16.86
2017-07-05T06:26:58.696Z,16.86
2017-07-05T06:27:39.277Z,16.83
2017-07-05T06:28:19.838Z,16.89
2017-07-05T06:29:00.414Z,16.79
2017-07-05T06:29:40.981Z,16.86
2017-07-05T06:30:21.549Z,16.9
2017-07-05T06:31:02.117Z,16.79
2017-07-05T06:31:42.705Z,16.83
2017-07-05T06:32:23.300Z,16.71
2017-07-05T06:33:03.869Z,16.69
2017-07-05T06:33:44.454Z,16.68
2017-07-05T06:34:25.030Z,16.64
2017-07-05T06:35:05.601Z,16.68
2017-07-05T06:35:46.181Z,16.66
2017-07-05T06:36:26.753Z,16.6
2017-07-05T06:37:07.337Z,16.61
2017-07-05T06:37:47.905Z,16.64
2017-07-05T06:38:28.502Z,16.61
2017-07-05T06:39:09.082Z,16.56
2017-07-05T06:39:49.647Z,16.6
2017-07-05T06:40:30.237Z,16.58
2017-07-05T06:41:10.837Z,16.56
2017-07-05T06:41:51.409Z,16.58
2017-07-05T06:42:31.987Z,16.53
2017-07-05T06:43:12.601Z,16.51
2017-07-05T06:43:53.157Z,16.58
2017-07-05T06:44:33.731Z,16.54
2017-07-05T06:45:14.304Z,16.56
2017-07-05T06:45:54.874Z,16.47
2017-07-05T06:46:35.457Z,16.42
2017-07-05T06:47:16.044Z,16.5
2017-07-05T06:47:56.630Z,16.5
2017-07-05T06:48:37.198Z,16.46
2017-07-05T06:49:17.764Z,16.5
2017-07-05T06:49:58.340Z,16.54
2017-07-05T06:50:38.911Z,16.49
2017-07-05T06:51:19.466Z,16.58
2017-07-05T06:52:00.028Z,16.58
2017-07-05T06:52:40.601Z,16.54
2017-07-05T06:53:21.168Z,16.57
2017-07-05T06:54:01.739Z,16.54
2017-07-05T06:54:42.314Z,16.6
2017-07-05T06:55:22.890Z,16.54
2017-07-05T06:56:03.478Z,16.54
2017-07-05T06:56:44.068Z,16.53
2017-07-05T06:57:24.647Z,16.6
2017-07-05T06:58:05.230Z,16.54
2017-07-05T06:58:45.815Z,16.53
2017-07-05T06:59:26.390Z,16.54
2017-07-05T07:00:06.956Z,16.56
2017-07-05T07:00:47.531Z,16.57
2017-07-05T07:01:28.118Z,16.57
2017-07-05T07:02:08.693Z,16.47
2017-07-05T07:02:49.301Z,16.58
2017-07-05T07:03:29.882Z,16.5
2017-07-05T07:04:10.457Z,16.49
2017-07-05T07:04:51.042Z,16.49
2017-07-05T07:05:31.633Z,16.54
2017-07-05T07:06:12.205Z,16.53
2017-07-05T07:06:52.763Z,16.56
2017-07-05T07:07:33.328Z,16.58
2017-07-05T07:08:13.903Z,16.54
2017-07-05T07:08:54.477Z,16.47
2017-07-05T07:09:35.047Z,16.5
2017-07-05T07:10:15.617Z,16.47
2017-07-05T07:10:56.187Z,16.31
2017-07-05T07:11:36.777Z,16.46
2017-07-05T07:12:17.355Z,16.46
2017-07-05T07:12:57.920Z,16.41
2017-07-05T07:13:38.489Z,16.41
2017-07-05T07:14:19.087Z,16.36
2017-07-05T07:14:59.682Z,16.41
2017-07-05T07:15:40.257Z,16.39
2017-07-05T07:16:20.871Z,16.38
2017-07-05T07:17:01.439Z,16.33
2017-07-05T07:17:42.023Z,16.35
2017-07-05T07:18:22.599Z,16.33
2017-07-05T07:19:03.161Z,16.32
2017-07-05T07:19:43.740Z,16.32
2017-07-05T07:20:24.310Z,16.32
2017-07-05T07:21:04.882Z,16.35
2017-07-05T07:21:45.448Z,16.33
2017-07-05T07:22:26.024Z,16.33
2017-07-05T07:23:06.594Z,16.35
2017-07-05T07:23:47.193Z,16.42
2017-07-05T07:24:27.760Z,16.33
2017-07-05T07:25:08.473Z,16.32
2017-07-05T07:25:48.914Z,16.36
2017-07-05T07:26:29.480Z,16.36
2017-07-05T07:27:10.071Z,16.29
2017-07-05T07:27:50.657Z,16.31
2017-07-05T07:28:31.231Z,16.29
2017-07-05T07:29:11.810Z,16.31
2017-07-05T07:29:52.405Z,16.33
2017-07-05T07:30:32.964Z,16.24
2017-07-05T07:31:13.535Z,16.17
2017-07-05T07:31:54.125Z,16.24
2017-07-05T07:32:34.722Z,16.2
2017-07-05T07:33:15.302Z,16.21
2017-07-05T07:33:55.913Z,16.15
2017-07-05T07:34:36.493Z,16.23
2017-07-05T07:35:17.057Z,16.17
2017-07-05T07:35:57.627Z,16.17
2017-07-05T07:36:38.196Z,16.21
2017-07-05T07:37:18.784Z,16.26
2017-07-05T07:37:59.347Z,16.24
2017-07-05T07:38:39.921Z,16.23
2017-07-05T07:39:20.488Z,16.2
2017-07-05T07:40:01.063Z,16.21
2017-07-05T07:40:41.639Z,16.21
2017-07-05T07:41:22.221Z,16.16
2017-07-05T07:42:02.813Z,16.21
2017-07-05T07:42:43.411Z,16.24
2017-07-05T07:43:23.976Z,16.16
2017-07-05T07:44:04.545Z,16.21
2017-07-05T07:44:45.123Z,16.24
2017-07-05T07:45:25.724Z,16.28
2017-07-05T07:46:06.306Z,16.23
2017-07-05T07:46:46.873Z,16.21
2017-07-05T07:47:27.445Z,16.24
2017-07-05T07:48:08.306Z,16.21
2017-07-05T07:48:49.427Z,16.2
2017-07-05T07:49:30.053Z,16.12
2017-07-05T07:50:10.641Z,16.23
2017-07-05T07:50:51.226Z,16.09
2017-07-05T07:51:31.785Z,16.09
2017-07-05T07:52:12.695Z,16.13
2017-07-05T07:52:53.299Z,16.17
2017-07-05T07:53:33.869Z,16.23
2017-07-05T07:54:14.474Z,16.17
2017-07-05T07:54:55.504Z,16.29
2017-07-05T07:55:36.226Z,16.26
2017-07-05T07:56:16.797Z,16.2
2017-07-05T07:56:57.368Z,16.2
2017-07-05T07:57:37.950Z,16.29
2017-07-05T07:58:18.506Z,16.26
2017-07-05T07:58:59.092Z,16.28
2017-07-05T07:59:39.664Z,16.24
2017-07-05T08:00:20.313Z,16.23
2017-07-05T08:01:00.905Z,16.26
2017-07-05T08:01:41.464Z,16.2
2017-07-05T08:02:22.045Z,16.24
2017-07-05T08:03:02.643Z,16.29
2017-07-05T08:03:43.399Z,16.33
2017-07-05T08:04:24.196Z,16.31
2017-07-05T08:05:04.826Z,16.36
2017-07-05T08:05:45.468Z,16.39
2017-07-05T08:06:26.097Z,16.53
2017-07-05T08:07:06.964Z,16.51
2017-07-05T08:07:48.839Z,16.61
2017-07-05T08:08:29.484Z,16.72
2017-07-05T08:09:10.212Z,16.76
2017-07-05T08:09:50.794Z,16.79
2017-07-05T08:10:31.485Z,16.87
2017-07-05T08:11:12.252Z,16.81
2017-07-05T08:11:52.855Z,16.93
2017-07-05T08:12:33.423Z,17.01
2017-07-05T08:13:15.248Z,17.02
2017-07-05T08:13:55.804Z,17.11
2017-07-05T08:14:36.408Z,17.11
2017-07-05T08:15:17.086Z,17.15
2017-07-05T08:15:58.341Z,17.14
2017-07-05T08:16:39.946Z,17.24
2017-07-05T08:17:20.596Z,17.24
2017-07-05T08:18:01.507Z,17.24
2017-07-05T08:18:42.506Z,17.16
2017-07-05T08:19:23.195Z,17.2
2017-07-05T08:20:03.820Z,17.26
2017-07-05T08:20:44.674Z,17.29
2017-07-05T08:21:25.256Z,17.38
2017-07-05T08:22:05.843Z,17.38
2017-07-05T08:22:46.433Z,17.46
2017-07-05T08:23:27.039Z,17.42
2017-07-05T08:24:07.649Z,17.6
2017-07-05T08:24:48.211Z,17.57
2017-07-05T08:25:28.803Z,17.74
2017-07-05T08:26:09.370Z,17.78
2017-07-05T08:26:49.928Z,17.7
2017-07-05T08:27:30.535Z,17.72
2017-07-05T08:28:11.115Z,17.85
2017-07-05T08:28:51.697Z,17.8
2017-07-05T08:29:32.293Z,17.89
2017-07-05T08:30:12.872Z,17.86
2017-07-05T08:30:53.432Z,17.85
2017-07-05T08:31:33.993Z,17.89
2017-07-05T08:32:14.559Z,17.92
2017-07-05T08:32:55.153Z,17.92
2017-07-05T08:33:35.743Z,17.98
2017-07-05T08:34:16.313Z,17.98
2017-07-05T08:34:56.885Z,17.97
2017-07-05T08:35:37.451Z,18.01
2017-07-05T08:36:18.030Z,18.04
2017-07-05T08:36:58.605Z,17.98
2017-07-05T08:37:39.181Z,18.08
2017-07-05T08:38:19.775Z,18.1
2017-07-05T08:39:00.467Z,18.11
2017-07-05T08:39:41.030Z,18.01
2017-07-05T08:40:21.609Z,18.05
2017-07-05T08:41:02.180Z,18.05
2017-07-05T08:41:42.781Z,18.07
2017-07-05T08:42:23.398Z,18
2017-07-05T08:43:03.966Z,18.03
2017-07-05T08:43:44.521Z,18.01